Time;durP1;ratioP1;P1;durP2;ratioP2;P2;SDS_P1;SDS_P2;PMS_P1;PMS_P2;Temp;Humidity;BMP_temperature;BMP_pressure;BME280_temperature;BME280_humidity;BME280_pressure;Samples;Min_cycle;Max_cycle;Signal;HPM_P1;HPM_P2
2021/12/23 00:00:48;;;;;;;44.80;25.45;;;;;;;;;;5116652;28;20259;-64
2021/12/23 00:03:15;;;;;;;48.20;26.17;;;;;;;;;;5116570;28;20310;-66
2021/12/23 00:05:42;;;;;;;50.78;26.02;;;;;;;;;;5116374;28;20273;-64
2021/12/23 00:08:09;;;;;;;47.80;26.23;;;;;;;;;;5116337;28;20207;-65
2021/12/23 00:10:36;;;;;;;44.38;26.63;;;;;;;;;;5135382;28;20533;-64
2021/12/23 00:13:02;;;;;;;46.95;26.15;;;;;;;;;;5137193;28;20205;-64
2021/12/23 00:15:32;;;;;;;44.65;25.95;;;;;;;;;;5136616;28;20203;-64
2021/12/23 00:18:04;;;;;;;43.35;25.48;;;;;;;;;;5137285;28;20210;-65
2021/12/23 00:23:28;;;;;;;45.45;25.35;;;;;;;;;;5137291;28;20291;-65
2021/12/23 00:26:00;;;;;;;45.10;24.77;;;;;;;;;;5136510;28;20289;-65
2021/12/23 00:28:27;;;;;;;42.60;25.70;;;;;;;;;;5141341;28;20229;-65
2021/12/23 00:30:53;;;;;;;45.10;25.27;;;;;;;;;;5143361;27;20194;-65
2021/12/23 00:33:22;;;;;;;52.00;27.00;;;;;;;;;;5146044;27;20191;-65
2021/12/23 00:35:49;;;;;;;49.20;26.67;;;;;;;;;;5146049;27;20420;-65
2021/12/23 00:38:21;;;;;;;50.00;27.80;;;;;;;;;;5144899;27;20235;-64
2021/12/23 00:40:48;;;;;;;45.60;26.20;;;;;;;;;;5146417;27;20190;-65
2021/12/23 00:43:14;;;;;;;50.30;26.83;;;;;;;;;;5145852;27;20211;-65
2021/12/23 00:45:41;;;;;;;50.85;27.58;;;;;;;;;;5145693;27;20225;-65
2021/12/23 00:48:07;;;;;;;49.25;26.58;;;;;;;;;;5146381;27;20490;-65
2021/12/23 00:50:34;;;;;;;47.72;27.17;;;;;;;;;;5145882;27;20194;-65
2021/12/23 00:53:05;;;;;;;44.95;26.00;;;;;;;;;;5145927;27;20205;-65
2021/12/23 00:55:33;;;;;;;49.28;26.30;;;;;;;;;;5145957;27;20214;-64
2021/12/23 00:58:00;;;;;;;46.05;26.35;;;;;;;;;;5145515;27;20198;-65
2021/12/23 01:00:27;;;;;;;47.85;26.75;;;;;;;;;;5145853;27;20190;-64
2021/12/23 01:02:53;;;;;;;47.05;26.65;;;;;;;;;;5145803;27;20214;-64
2021/12/23 01:05:22;;;;;;;46.88;26.08;;;;;;;;;;5145550;27;20194;-65
2021/12/23 01:07:49;;;;;;;45.72;26.23;;;;;;;;;;5145659;27;20194;-64
2021/12/23 01:10:17;;;;;;;45.10;25.77;;;;;;;;;;5145507;27;20194;-65
2021/12/23 01:12:48;;;;;;;49.45;27.10;;;;;;;;;;5145955;27;20197;-65
2021/12/23 01:15:17;;;;;;;53.97;27.70;;;;;;;;;;5145359;27;20236;-64
2021/12/23 01:17:55;;;;;;;52.25;27.25;;;;;;;;;;5145854;27;20201;-65
2021/12/23 01:20:26;;;;;;;46.97;27.27;;;;;;;;;;5145328;27;20194;-64
2021/12/23 01:22:54;;;;;;;47.65;26.75;;;;;;;;;;5145678;27;20250;-64
2021/12/23 01:25:20;;;;;;;48.35;26.73;;;;;;;;;;5144852;27;20191;-64
2021/12/23 01:27:48;;;;;;;51.00;26.83;;;;;;;;;;5145497;27;20382;-64
2021/12/23 01:30:17;;;;;;;45.03;25.50;;;;;;;;;;5145461;27;20477;-65
2021/12/23 01:32:44;;;;;;;46.72;26.80;;;;;;;;;;5145161;27;20198;-64
2021/12/23 01:35:10;;;;;;;50.58;27.40;;;;;;;;;;5144790;27;20194;-64
2021/12/23 01:37:37;;;;;;;47.70;26.25;;;;;;;;;;5145011;27;20194;-65
2021/12/23 01:40:04;;;;;;;51.50;24.88;;;;;;;;;;5144807;27;20201;-65
2021/12/23 01:42:30;;;;;;;44.08;24.88;;;;;;;;;;5144411;27;20210;-65
2021/12/23 01:44:58;;;;;;;47.83;26.73;;;;;;;;;;5144551;27;20214;-65
2021/12/23 01:47:24;;;;;;;47.13;25.45;;;;;;;;;;5144769;27;20194;-64
2021/12/23 01:49:51;;;;;;;44.65;25.55;;;;;;;;;;5144706;27;20243;-64
2021/12/23 01:52:18;;;;;;;48.03;25.30;;;;;;;;;;5144608;27;20198;-64
2021/12/23 01:54:45;;;;;;;46.58;25.33;;;;;;;;;;5144394;27;20195;-64
2021/12/23 01:57:13;;;;;;;46.42;26.10;;;;;;;;;;5144689;27;20382;-64
2021/12/23 01:59:40;;;;;;;43.80;25.55;;;;;;;;;;5144517;27;20203;-65
2021/12/23 02:02:08;;;;;;;42.28;24.67;;;;;;;;;;5144385;27;20225;-64
2021/12/23 02:04:34;;;;;;;43.92;25.55;;;;;;;;;;5144204;27;20195;-64
2021/12/23 02:07:01;;;;;;;46.67;25.65;;;;;;;;;;5144290;27;20194;-64
2021/12/23 02:09:27;;;;;;;49.00;26.25;;;;;;;;;;5144401;27;20202;-64
2021/12/23 02:11:55;;;;;;;47.05;25.10;;;;;;;;;;5144440;27;20217;-64
2021/12/23 02:14:22;;;;;;;46.63;25.00;;;;;;;;;;5144513;27;20194;-64
2021/12/23 02:16:48;;;;;;;46.42;24.80;;;;;;;;;;5144091;27;20265;-64
2021/12/23 02:19:18;;;;;;;40.85;24.25;;;;;;;;;;5144585;27;20194;-64
2021/12/23 02:21:46;;;;;;;44.33;25.25;;;;;;;;;;5144233;27;20195;-65
2021/12/23 02:24:13;;;;;;;47.95;25.35;;;;;;;;;;5144329;27;20205;-64
2021/12/23 02:26:39;;;;;;;43.55;25.38;;;;;;;;;;5143695;27;20194;-64
2021/12/23 02:29:06;;;;;;;46.22;26.08;;;;;;;;;;5143881;27;20201;-64
2021/12/23 02:31:32;;;;;;;46.03;25.52;;;;;;;;;;5143805;27;20202;-64
2021/12/23 02:33:59;;;;;;;44.70;24.90;;;;;;;;;;5144161;27;20517;-64
2021/12/23 02:36:26;;;;;;;44.72;24.95;;;;;;;;;;5143650;27;20194;-64
2021/12/23 02:38:54;;;;;;;49.42;25.20;;;;;;;;;;5144084;27;20194;-64
2021/12/23 02:41:21;;;;;;;45.13;25.35;;;;;;;;;;5144268;27;20202;-64
2021/12/23 02:43:47;;;;;;;44.97;25.58;;;;;;;;;;5143509;27;20222;-64
2021/12/23 02:46:17;;;;;;;47.42;25.50;;;;;;;;;;5143564;27;20221;-64
2021/12/23 02:48:44;;;;;;;44.78;24.17;;;;;;;;;;5143978;27;20464;-64
2021/12/23 02:51:12;;;;;;;45.78;25.40;;;;;;;;;;5143878;27;20202;-64
2021/12/23 02:53:38;;;;;;;47.70;24.55;;;;;;;;;;5143268;27;20198;-64
2021/12/23 02:56:07;;;;;;;44.28;24.00;;;;;;;;;;5143177;27;20261;-64
2021/12/23 02:58:34;;;;;;;44.67;25.08;;;;;;;;;;5143606;27;20202;-64
2021/12/23 03:01:03;;;;;;;43.17;24.67;;;;;;;;;;5143665;27;20618;-64
2021/12/23 03:03:29;;;;;;;49.10;26.15;;;;;;;;;;5143462;27;20241;-64
2021/12/23 03:05:57;;;;;;;46.63;25.80;;;;;;;;;;5143212;27;20202;-64
2021/12/23 03:08:30;;;;;;;47.33;26.50;;;;;;;;;;5143264;27;20194;-64
2021/12/23 03:10:56;;;;;;;45.60;26.13;;;;;;;;;;5143517;27;20499;-64
2021/12/23 03:13:24;;;;;;;45.40;25.70;;;;;;;;;;5143294;27;20190;-64
2021/12/23 03:15:52;;;;;;;47.20;26.08;;;;;;;;;;5143085;27;20194;-64
2021/12/23 03:18:18;;;;;;;42.63;25.00;;;;;;;;;;5143552;28;20499;-64
2021/12/23 03:20:45;;;;;;;46.67;24.45;;;;;;;;;;5143293;28;20194;-64
2021/12/23 03:23:11;;;;;;;46.53;25.10;;;;;;;;;;5143155;28;20210;-64
2021/12/23 03:25:38;;;;;;;45.75;25.13;;;;;;;;;;5142877;28;20202;-64
2021/12/23 03:28:04;;;;;;;45.83;25.25;;;;;;;;;;5143072;28;20201;-64
2021/12/23 03:30:32;;;;;;;49.15;26.48;;;;;;;;;;5143077;28;20201;-64
2021/12/23 03:32:59;;;;;;;46.83;26.02;;;;;;;;;;5143493;28;20518;-64
2021/12/23 03:35:25;;;;;;;50.25;26.00;;;;;;;;;;5142887;28;20194;-64
2021/12/23 03:37:53;;;;;;;42.90;25.08;;;;;;;;;;5142985;28;20194;-64
2021/12/23 03:40:19;;;;;;;44.08;25.13;;;;;;;;;;5143289;28;20521;-64
2021/12/23 03:42:46;;;;;;;44.53;25.20;;;;;;;;;;5143135;27;20218;-64
2021/12/23 03:45:13;;;;;;;44.15;25.30;;;;;;;;;;5142663;27;20215;-65
2021/12/23 03:47:40;;;;;;;47.80;25.48;;;;;;;;;;5142678;28;20213;-64
2021/12/23 03:50:07;;;;;;;46.55;25.60;;;;;;;;;;5142669;28;20194;-64
2021/12/23 03:52:34;;;;;;;47.08;25.50;;;;;;;;;;5142641;28;20305;-64
2021/12/23 03:55:01;;;;;;;46.28;25.60;;;;;;;;;;5142599;28;20202;-64
2021/12/23 03:57:28;;;;;;;48.25;25.23;;;;;;;;;;5143436;28;20195;-64
2021/12/23 03:59:54;;;;;;;47.75;25.30;;;;;;;;;;5142826;28;20210;-64
2021/12/23 04:02:20;;;;;;;49.38;25.75;;;;;;;;;;5142741;28;20232;-64
2021/12/23 04:04:48;;;;;;;44.60;25.98;;;;;;;;;;5143508;27;20487;-64
2021/12/23 04:07:16;;;;;;;46.25;25.52;;;;;;;;;;5146498;27;20502;-64
2021/12/23 04:09:43;;;;;;;45.30;24.73;;;;;;;;;;5146731;27;20202;-64
2021/12/23 04:12:09;;;;;;;50.50;25.52;;;;;;;;;;5146811;27;20194;-64
2021/12/23 04:14:36;;;;;;;40.67;22.92;;;;;;;;;;5146334;27;20191;-64
2021/12/23 04:17:02;;;;;;;41.28;24.63;;;;;;;;;;5146733;27;20391;-64
2021/12/23 04:19:31;;;;;;;47.20;24.60;;;;;;;;;;5146780;27;20390;-64
2021/12/23 04:21:59;;;;;;;44.33;24.15;;;;;;;;;;5146438;27;20194;-64
2021/12/23 04:24:26;;;;;;;43.88;25.30;;;;;;;;;;5146230;27;20218;-64
2021/12/23 04:26:52;;;;;;;45.88;25.42;;;;;;;;;;5146186;27;20194;-64
2021/12/23 04:29:19;;;;;;;44.28;24.38;;;;;;;;;;5146526;27;20202;-64
2021/12/23 04:31:45;;;;;;;47.25;24.60;;;;;;;;;;5146241;27;20202;-64
2021/12/23 04:34:12;;;;;;;44.15;24.55;;;;;;;;;;5146460;27;20227;-64
2021/12/23 04:36:38;;;;;;;45.63;24.63;;;;;;;;;;5145765;27;20199;-64
2021/12/23 04:39:06;;;;;;;43.83;24.58;;;;;;;;;;5146298;27;20194;-64
2021/12/23 04:41:32;;;;;;;43.97;25.25;;;;;;;;;;5146376;27;20195;-64
2021/12/23 04:43:59;;;;;;;45.30;25.15;;;;;;;;;;5146430;27;20509;-64
2021/12/23 04:46:26;;;;;;;42.40;25.10;;;;;;;;;;5145673;27;20214;-64
2021/12/23 04:48:52;;;;;;;47.45;26.05;;;;;;;;;;5145892;27;20195;-64
2021/12/23 04:51:19;;;;;;;43.88;24.60;;;;;;;;;;5146128;27;20202;-64
2021/12/23 04:53:46;;;;;;;40.25;23.90;;;;;;;;;;5146045;27;20191;-64
2021/12/23 04:56:14;;;;;;;44.67;25.10;;;;;;;;;;5145526;27;20194;-64
2021/12/23 04:58:41;;;;;;;46.00;25.70;;;;;;;;;;5145707;27;20202;-64
2021/12/23 05:01:09;;;;;;;47.95;26.15;;;;;;;;;;5145697;27;20285;-66
2021/12/23 05:03:35;;;;;;;45.42;25.08;;;;;;;;;;5145841;27;20377;-63
2021/12/23 05:06:02;;;;;;;50.35;25.75;;;;;;;;;;5145450;27;20498;-64
2021/12/23 05:08:28;;;;;;;43.33;24.27;;;;;;;;;;5145565;27;20194;-64
2021/12/23 05:10:54;;;;;;;44.75;25.80;;;;;;;;;;5145587;27;20201;-64
2021/12/23 05:13:22;;;;;;;42.83;24.67;;;;;;;;;;5145579;27;20210;-66
2021/12/23 05:15:49;;;;;;;45.83;24.77;;;;;;;;;;5145107;27;20199;-65
2021/12/23 05:18:15;;;;;;;49.42;26.48;;;;;;;;;;5144960;27;20201;-65
2021/12/23 05:20:41;;;;;;;44.17;25.45;;;;;;;;;;5145653;27;20186;-65
2021/12/23 05:23:08;;;;;;;47.97;25.35;;;;;;;;;;5145557;27;20401;-65
2021/12/23 05:25:34;;;;;;;48.00;25.48;;;;;;;;;;5145459;27;20528;-64
2021/12/23 05:28:01;;;;;;;46.25;24.55;;;;;;;;;;5145719;27;20548;-64
2021/12/23 05:30:29;;;;;;;45.42;24.17;;;;;;;;;;5145313;27;20571;-64
2021/12/23 05:32:55;;;;;;;46.63;24.08;;;;;;;;;;5145318;27;20194;-64
2021/12/23 05:35:22;;;;;;;44.03;24.30;;;;;;;;;;5145097;27;20266;-65
2021/12/23 05:37:48;;;;;;;46.03;24.40;;;;;;;;;;5145115;27;20194;-64
2021/12/23 05:40:16;;;;;;;46.13;25.05;;;;;;;;;;5145147;27;20194;-64
2021/12/23 05:42:42;;;;;;;42.42;24.20;;;;;;;;;;5144741;27;20194;-65
2021/12/23 05:45:09;;;;;;;43.70;23.30;;;;;;;;;;5144530;27;20542;-65
2021/12/23 05:47:37;;;;;;;44.17;23.90;;;;;;;;;;5144946;27;20394;-65
2021/12/23 05:50:04;;;;;;;40.63;23.30;;;;;;;;;;5144831;27;20195;-65
2021/12/23 05:52:30;;;;;;;39.65;22.80;;;;;;;;;;5144876;27;20195;-65
2021/12/23 05:54:57;;;;;;;44.40;25.23;;;;;;;;;;5144647;27;20191;-65
2021/12/23 05:57:24;;;;;;;43.00;24.60;;;;;;;;;;5144521;27;20195;-66
2021/12/23 05:59:50;;;;;;;41.05;23.98;;;;;;;;;;5144331;27;20498;-65
2021/12/23 06:02:17;;;;;;;43.72;24.85;;;;;;;;;;5144225;27;20202;-65
2021/12/23 06:04:44;;;;;;;41.63;23.52;;;;;;;;;;5144233;27;20217;-65
2021/12/23 06:07:11;;;;;;;45.63;24.83;;;;;;;;;;5144702;27;20202;-65
2021/12/23 06:09:37;;;;;;;43.28;24.38;;;;;;;;;;5144304;27;20201;-65
2021/12/23 06:12:04;;;;;;;46.70;25.88;;;;;;;;;;5144277;27;20201;-65
2021/12/23 06:14:30;;;;;;;48.28;26.55;;;;;;;;;;5144009;27;20199;-65
2021/12/23 06:16:57;;;;;;;49.55;26.38;;;;;;;;;;5144473;27;20194;-65
2021/12/23 06:19:23;;;;;;;48.25;26.05;;;;;;;;;;5144258;27;20217;-65
2021/12/23 06:21:51;;;;;;;49.90;27.60;;;;;;;;;;5144264;27;20514;-65
2021/12/23 06:24:18;;;;;;;48.15;25.65;;;;;;;;;;5144437;27;20529;-65
2021/12/23 06:26:44;;;;;;;43.90;24.25;;;;;;;;;;5143738;27;20195;-64
2021/12/23 06:29:10;;;;;;;50.97;26.05;;;;;;;;;;5143124;27;20195;-64
2021/12/23 06:31:37;;;;;;;45.53;24.88;;;;;;;;;;5144126;27;20386;-64
2021/12/23 06:34:03;;;;;;;48.90;26.23;;;;;;;;;;5143930;27;20190;-64
2021/12/23 06:36:30;;;;;;;41.78;23.85;;;;;;;;;;5143695;27;20221;-64
2021/12/23 06:38:57;;;;;;;48.40;25.00;;;;;;;;;;5143885;27;20502;-64
2021/12/23 06:41:24;;;;;;;43.60;24.50;;;;;;;;;;5143640;27;20501;-64
2021/12/23 06:43:50;;;;;;;43.78;24.27;;;;;;;;;;5143593;27;20214;-64
2021/12/23 06:46:17;;;;;;;42.92;25.02;;;;;;;;;;5143775;27;20221;-67
2021/12/23 06:48:43;;;;;;;43.53;24.58;;;;;;;;;;5143561;27;20202;-65
2021/12/23 06:51:09;;;;;;;50.05;24.88;;;;;;;;;;5143888;27;20195;-65
2021/12/23 06:53:37;;;;;;;40.53;23.67;;;;;;;;;;5143742;27;20371;-67
2021/12/23 06:56:05;;;;;;;45.88;25.08;;;;;;;;;;5143203;27;20263;-67
2021/12/23 06:58:33;;;;;;;47.63;24.33;;;;;;;;;;5143461;27;20217;-67
2021/12/23 07:00:59;;;;;;;49.20;24.45;;;;;;;;;;5143704;27;20201;-67
2021/12/23 07:03:34;;;;;;;43.13;24.40;;;;;;;;;;5143522;27;20194;-67
2021/12/23 07:06:06;;;;;;;43.58;24.27;;;;;;;;;;5143138;27;20182;-67
2021/12/23 07:08:35;;;;;;;42.95;24.75;;;;;;;;;;5143207;27;20193;-67
2021/12/23 07:11:01;;;;;;;44.25;24.40;;;;;;;;;;5143383;27;20285;-67
2021/12/23 07:13:29;;;;;;;44.33;23.35;;;;;;;;;;5143498;27;20490;-67
2021/12/23 07:15:56;;;;;;;44.38;24.10;;;;;;;;;;5143094;27;20201;-67
2021/12/23 07:18:22;;;;;;;42.45;23.95;;;;;;;;;;5143256;27;20261;-67
2021/12/23 07:20:49;;;;;;;41.38;22.67;;;;;;;;;;5143390;28;20377;-67
2021/12/23 07:23:15;;;;;;;42.28;23.13;;;;;;;;;;5143166;28;20303;-68
2021/12/23 07:25:42;;;;;;;41.67;22.58;;;;;;;;;;5143058;28;20194;-67
2021/12/23 07:28:08;;;;;;;43.20;24.55;;;;;;;;;;5143416;28;20491;-67
2021/12/23 07:30:36;;;;;;;49.05;25.67;;;;;;;;;;5143108;28;20438;-67
2021/12/23 07:33:02;;;;;;;47.70;26.65;;;;;;;;;;5143092;28;20236;-67
2021/12/23 07:35:29;;;;;;;41.53;23.77;;;;;;;;;;5142774;28;20221;-67
2021/12/23 07:37:57;;;;;;;41.92;24.55;;;;;;;;;;5143429;28;20194;-66
2021/12/23 07:40:23;;;;;;;39.78;22.92;;;;;;;;;;5144815;27;20200;-67
2021/12/23 07:42:56;;;;;;;39.17;22.52;;;;;;;;;;5147206;27;20182;-66
2021/12/23 07:45:22;;;;;;;45.17;23.98;;;;;;;;;;5147109;27;20263;-67
2021/12/23 07:47:50;;;;;;;46.42;24.45;;;;;;;;;;5147374;27;20502;-67
2021/12/23 07:50:17;;;;;;;45.40;24.05;;;;;;;;;;5147003;27;20194;-67
2021/12/23 07:52:43;;;;;;;45.15;24.40;;;;;;;;;;5146992;27;20205;-67
2021/12/23 07:55:10;;;;;;;45.35;24.60;;;;;;;;;;5147011;27;20196;-67
2021/12/23 07:57:36;;;;;;;44.85;23.10;;;;;;;;;;5146940;27;20201;-66
2021/12/23 08:00:04;;;;;;;46.35;24.17;;;;;;;;;;5147278;27;20190;-67
2021/12/23 08:02:30;;;;;;;45.95;23.27;;;;;;;;;;5147018;27;20195;-67
2021/12/23 08:04:58;;;;;;;44.83;24.33;;;;;;;;;;5146668;27;20401;-67
2021/12/23 08:07:25;;;;;;;43.30;23.75;;;;;;;;;;5147086;27;20255;-68
2021/12/23 08:09:51;;;;;;;42.55;23.83;;;;;;;;;;5146992;27;20566;-67
2021/12/23 08:12:17;;;;;;;47.25;24.33;;;;;;;;;;5146697;27;20194;-67
2021/12/23 08:14:44;;;;;;;46.78;23.77;;;;;;;;;;5146451;27;20205;-67
2021/12/23 08:17:10;;;;;;;42.15;24.52;;;;;;;;;;5146429;27;20486;-67
2021/12/23 08:19:37;;;;;;;44.95;23.85;;;;;;;;;;5146416;27;20202;-67
2021/12/23 08:22:06;;;;;;;43.42;23.75;;;;;;;;;;5146880;27;20387;-67
2021/12/23 08:24:32;;;;;;;43.17;24.25;;;;;;;;;;5146183;27;20242;-67
2021/12/23 08:26:59;;;;;;;45.13;23.85;;;;;;;;;;5146609;27;20201;-67
2021/12/23 08:29:27;;;;;;;42.35;24.25;;;;;;;;;;5146447;27;20232;-67
2021/12/23 08:31:53;;;;;;;43.85;24.23;;;;;;;;;;5146286;27;20230;-67
2021/12/23 08:34:20;;;;;;;43.67;23.60;;;;;;;;;;5146260;27;20259;-67
2021/12/23 08:36:46;;;;;;;41.40;21.83;;;;;;;;;;5146104;27;20374;-67
2021/12/23 08:39:14;;;;;;;44.83;25.02;;;;;;;;;;5146388;27;20201;-67
2021/12/23 08:41:41;;;;;;;45.92;23.80;;;;;;;;;;5146121;27;20202;-67
2021/12/23 08:44:07;;;;;;;41.03;22.92;;;;;;;;;;5146030;27;20206;-55
2021/12/23 08:46:33;;;;;;;44.00;24.48;;;;;;;;;;5134663;27;20211;-55
2021/12/23 08:49:00;;;;;;;46.40;25.77;;;;;;;;;;5107691;28;20191;-55
2021/12/23 08:51:26;;;;;;;53.38;25.55;;;;;;;;;;5104005;28;20196;-55
2021/12/23 08:53:53;;;;;;;45.92;25.52;;;;;;;;;;5104850;28;20192;-55
2021/12/23 08:56:20;;;;;;;50.50;25.65;;;;;;;;;;5104647;28;20196;-54
2021/12/23 08:58:47;;;;;;;45.58;23.88;;;;;;;;;;5104621;28;20208;-56
2021/12/23 09:01:13;;;;;;;47.25;24.63;;;;;;;;;;5105047;28;20204;-56
2021/12/23 09:03:40;;;;;;;50.83;23.77;;;;;;;;;;5104792;28;20219;-55
2021/12/23 09:06:06;;;;;;;47.45;25.05;;;;;;;;;;5104346;28;20216;-56
2021/12/23 09:08:33;;;;;;;47.05;24.52;;;;;;;;;;5104915;28;20203;-54
2021/12/23 09:11:00;;;;;;;43.42;24.15;;;;;;;;;;5104742;28;20503;-56
2021/12/23 09:13:28;;;;;;;43.58;23.52;;;;;;;;;;5105433;28;20210;-52
2021/12/23 09:15:54;;;;;;;44.60;24.60;;;;;;;;;;5117784;28;20211;-52
2021/12/23 09:18:21;;;;;;;49.38;24.45;;;;;;;;;;5118434;28;20214;-52
2021/12/23 09:20:48;;;;;;;41.85;24.67;;;;;;;;;;5134769;27;20474;-53
2021/12/23 09:23:15;;;;;;;49.13;24.15;;;;;;;;;;5139585;27;20206;-53
2021/12/23 09:25:41;;;;;;;41.00;22.92;;;;;;;;;;5139208;27;20222;-54
2021/12/23 09:33:35;;;;;;;46.35;24.95;;;;;;;;;;5118974;28;20213;-55
2021/12/23 09:36:01;;;;;;;48.30;24.00;;;;;;;;;;5118727;28;20203;-52
2021/12/23 09:38:28;;;;;;;41.33;23.23;;;;;;;;;;5118820;28;20207;-54
2021/12/23 09:40:55;;;;;;;46.97;24.88;;;;;;;;;;5118455;28;20207;-52
2021/12/23 09:43:22;;;;;;;50.70;24.70;;;;;;;;;;5118673;28;20451;-51
2021/12/23 09:45:48;;;;;;;44.28;23.92;;;;;;;;;;5118436;28;20230;-51
2021/12/23 09:48:19;;;;;;;41.95;23.35;;;;;;;;;;5118754;28;20722;-53
2021/12/23 09:50:46;;;;;;;38.75;22.63;;;;;;;;;;5118751;28;20207;-53
2021/12/23 09:53:15;;;;;;;42.00;21.95;;;;;;;;;;5118900;28;20229;-54
2021/12/23 09:55:42;;;;;;;40.30;22.40;;;;;;;;;;5118404;28;20372;-53
2021/12/23 09:58:08;;;;;;;43.90;23.13;;;;;;;;;;5118507;28;20426;-54
2021/12/23 10:00:36;;;;;;;40.17;22.85;;;;;;;;;;5118529;28;20207;-51
2021/12/23 10:03:03;;;;;;;40.95;22.42;;;;;;;;;;5118273;28;20278;-53
2021/12/23 10:05:32;;;;;;;40.15;21.50;;;;;;;;;;5117480;28;20279;-56
2021/12/23 10:07:59;;;;;;;40.00;22.05;;;;;;;;;;5123347;27;20214;-54
2021/12/23 10:10:31;;;;;;;37.05;21.75;;;;;;;;;;5121393;27;20203;-53
2021/12/23 10:32:30;;;;;;;39.50;21.10;;;;;;;;;;5077363;28;20249;-52
2021/12/23 10:37:50;;;;;;;38.42;21.20;;;;;;;;;;5115304;28;20206;-53
2021/12/23 10:40:17;;;;;;;40.92;20.60;;;;;;;;;;5120617;28;20244;-53
2021/12/23 10:42:49;;;;;;;35.58;20.70;;;;;;;;;;5120852;28;20210;-53
2021/12/23 10:45:16;;;;;;;36.60;20.90;;;;;;;;;;5120680;28;20422;-55
2021/12/23 10:47:54;;;;;;;39.17;21.60;;;;;;;;;;5120989;28;20195;-54
2021/12/23 10:50:27;;;;;;;39.05;21.65;;;;;;;;;;5120986;28;20482;-54
2021/12/23 10:52:56;;;;;;;39.17;21.90;;;;;;;;;;5120361;28;20210;-54
2021/12/23 10:58:13;;;;;;;38.33;20.83;;;;;;;;;;5120210;28;20252;-54
2021/12/23 11:00:41;;;;;;;36.65;20.23;;;;;;;;;;5120661;28;20203;-53
2021/12/23 11:03:12;;;;;;;40.67;23.17;;;;;;;;;;5119415;28;20281;-55
2021/12/23 11:05:43;;;;;;;37.85;20.77;;;;;;;;;;5116151;28;20230;-53
2021/12/23 11:08:23;;;;;;;35.83;22.67;;;;;;;;;;5105078;27;20202;-53
2021/12/23 11:11:20;;;;;;;34.33;21.52;;;;;;;;;;5137823;27;20277;-54
2021/12/23 11:28:05;;;;;;;35.67;21.02;;;;;;;;;;5117264;28;20209;-54
2021/12/23 11:36:32;;;;;;;37.47;21.50;;;;;;;;;;5116846;28;20237;-53
2021/12/23 11:39:24;;;;;;;38.33;22.08;;;;;;;;;;5117488;28;20202;-53
2021/12/23 11:42:00;;;;;;;39.88;21.42;;;;;;;;;;5117175;28;20217;-53
2021/12/23 11:44:30;;;;;;;38.92;21.63;;;;;;;;;;5115916;28;20281;-54
2021/12/23 11:46:58;;;;;;;40.30;22.52;;;;;;;;;;5116554;28;20270;-55
2021/12/23 11:49:25;;;;;;;42.97;22.50;;;;;;;;;;5116899;28;20207;-55
2021/12/23 11:51:53;;;;;;;44.85;23.30;;;;;;;;;;5116945;28;20206;-53
2021/12/23 11:54:21;;;;;;;40.75;22.95;;;;;;;;;;5116512;28;20214;-53
2021/12/23 11:56:49;;;;;;;47.03;24.08;;;;;;;;;;5116905;28;20206;-53
2021/12/23 11:59:18;;;;;;;43.47;22.75;;;;;;;;;;5116894;28;20567;-54
2021/12/23 12:01:46;;;;;;;39.00;22.05;;;;;;;;;;5116500;28;20210;-54
2021/12/23 12:04:14;;;;;;;38.00;21.10;;;;;;;;;;5115390;28;20211;-54
2021/12/23 12:06:43;;;;;;;52.08;26.00;;;;;;;;;;5115680;28;20227;-55
2021/12/23 12:09:11;;;;;;;45.08;23.98;;;;;;;;;;5128958;28;20218;-54
2021/12/23 12:11:38;;;;;;;44.92;23.60;;;;;;;;;;5129531;28;20386;-53
2021/12/23 12:14:04;;;;;;;37.40;21.83;;;;;;;;;;5116024;28;20207;-55
2021/12/23 12:16:36;;;;;;;41.45;22.70;;;;;;;;;;5115967;28;20530;-54
2021/12/23 12:19:03;;;;;;;37.80;21.80;;;;;;;;;;5096320;28;20245;-54
2021/12/23 12:21:32;;;;;;;39.92;22.75;;;;;;;;;;5107234;28;20207;-53
2021/12/23 12:24:08;;;;;;;37.85;20.98;;;;;;;;;;5116322;28;20734;-55
2021/12/23 12:26:37;;;;;;;43.97;23.35;;;;;;;;;;5117864;28;20564;-55
2021/12/23 12:29:04;;;;;;;39.28;22.23;;;;;;;;;;5119452;28;20206;-53
2021/12/23 12:31:38;;;;;;;41.92;21.67;;;;;;;;;;5119734;28;20511;-54
2021/12/23 12:34:07;;;;;;;38.33;21.10;;;;;;;;;;5119369;28;20520;-55
2021/12/23 12:36:40;;;;;;;35.33;21.25;;;;;;;;;;5119712;28;20203;-53
2021/12/23 12:39:24;;;;;;;36.67;20.55;;;;;;;;;;5119912;28;20269;-55
2021/12/23 12:41:51;;;;;;;37.40;22.35;;;;;;;;;;5119950;28;20256;-52
2021/12/23 12:44:23;;;;;;;37.58;20.40;;;;;;;;;;5119389;28;20214;-53
2021/12/23 12:46:57;;;;;;;38.00;22.27;;;;;;;;;;5119980;28;20551;-54
2021/12/23 12:49:27;;;;;;;40.92;21.52;;;;;;;;;;5119103;28;20238;-54
2021/12/23 12:51:55;;;;;;;37.63;20.70;;;;;;;;;;5119353;28;20242;-55
2021/12/23 12:54:30;;;;;;;34.00;19.58;;;;;;;;;;5118545;28;20709;-53
2021/12/23 12:56:58;;;;;;;36.03;21.13;;;;;;;;;;5118440;28;20207;-52
2021/12/23 12:59:25;;;;;;;34.03;21.08;;;;;;;;;;5119492;28;20579;-53
2021/12/23 13:01:52;;;;;;;34.17;20.92;;;;;;;;;;5119730;28;20207;-53
2021/12/23 13:04:20;;;;;;;36.70;20.48;;;;;;;;;;5118854;28;20215;-54
2021/12/23 13:06:48;;;;;;;34.22;20.00;;;;;;;;;;5119584;28;20223;-52
2021/12/23 13:09:16;;;;;;;37.50;21.05;;;;;;;;;;5132508;27;20219;-53
2021/12/23 13:11:43;;;;;;;37.65;20.55;;;;;;;;;;5140105;27;20202;-53
2021/12/23 13:14:14;;;;;;;35.70;20.95;;;;;;;;;;5139096;27;20259;-53
2021/12/23 13:16:51;;;;;;;34.60;20.25;;;;;;;;;;5138833;27;20214;-53
2021/12/23 13:19:21;;;;;;;36.97;22.02;;;;;;;;;;5124137;27;20444;-53
2021/12/23 13:21:49;;;;;;;36.17;20.63;;;;;;;;;;5119672;28;20207;-53
2021/12/23 13:24:17;;;;;;;39.25;20.40;;;;;;;;;;5118330;28;20259;-53
2021/12/23 13:26:44;;;;;;;32.10;19.58;;;;;;;;;;5117831;28;20299;-54
2021/12/23 13:29:10;;;;;;;35.25;20.20;;;;;;;;;;5118956;28;20207;-53
2021/12/23 13:31:38;;;;;;;35.13;19.42;;;;;;;;;;5118416;28;20207;-53
2021/12/23 13:34:05;;;;;;;33.95;20.73;;;;;;;;;;5118217;28;20207;-53
2021/12/23 13:36:33;;;;;;;30.55;18.77;;;;;;;;;;5118245;28;20244;-54
2021/12/23 13:39:03;;;;;;;35.17;19.55;;;;;;;;;;5118325;28;20229;-52
2021/12/23 13:41:30;;;;;;;38.55;20.33;;;;;;;;;;5119266;28;20203;-54
2021/12/23 13:43:58;;;;;;;32.95;19.70;;;;;;;;;;5118703;28;20207;-54
2021/12/23 13:46:25;;;;;;;35.63;19.80;;;;;;;;;;5118390;28;20231;-55
2021/12/23 13:48:54;;;;;;;31.60;18.75;;;;;;;;;;5118558;28;20214;-53
2021/12/23 13:51:21;;;;;;;34.10;18.38;;;;;;;;;;5118839;28;20207;-53
2021/12/23 13:53:47;;;;;;;35.53;19.33;;;;;;;;;;5118440;28;20203;-53
2021/12/23 13:56:15;;;;;;;34.42;19.52;;;;;;;;;;5118486;28;20210;-53
2021/12/23 13:58:42;;;;;;;33.65;18.10;;;;;;;;;;5118375;28;20226;-54
2021/12/23 14:01:08;;;;;;;35.08;19.00;;;;;;;;;;5118464;28;20214;-53
2021/12/23 14:03:35;;;;;;;28.10;19.00;;;;;;;;;;5117969;28;20203;-53
2021/12/23 14:06:01;;;;;;;29.73;16.73;;;;;;;;;;5116999;28;20234;-53
2021/12/23 14:08:30;;;;;;;25.45;16.08;;;;;;;;;;5119758;27;20203;-53
2021/12/23 14:10:57;;;;;;;31.83;16.70;;;;;;;;;;5118791;28;20282;-52
2021/12/23 14:13:25;;;;;;;27.33;17.45;;;;;;;;;;5117333;28;20420;-54
2021/12/23 14:15:52;;;;;;;30.35;16.77;;;;;;;;;;5113412;28;20204;-53
2021/12/23 14:18:25;;;;;;;31.85;18.70;;;;;;;;;;5118117;28;20238;-54
2021/12/23 14:23:39;;;;;;;56.75;23.42;;;;;;;;;;5117932;28;20206;-53
2021/12/23 14:26:08;;;;;;;42.25;23.20;;;;;;;;;;5117296;28;20473;-53
2021/12/23 14:28:38;;;;;;;36.30;20.83;;;;;;;;;;5117884;28;20597;-54
2021/12/23 14:31:05;;;;;;;43.38;21.02;;;;;;;;;;5118122;28;20541;-53
2021/12/23 14:33:35;;;;;;;34.70;20.88;;;;;;;;;;5117825;28;20252;-54
2021/12/23 14:36:04;;;;;;;37.67;20.73;;;;;;;;;;5117630;28;20203;-53
2021/12/23 14:38:32;;;;;;;38.70;21.00;;;;;;;;;;5117983;28;20207;-54
2021/12/23 14:41:10;;;;;;;36.65;21.33;;;;;;;;;;5117648;28;20207;-53
2021/12/23 14:43:52;;;;;;;42.47;21.58;;;;;;;;;;5117706;28;20536;-54
2021/12/23 14:46:18;;;;;;;46.28;22.98;;;;;;;;;;5117261;28;20535;-53
2021/12/23 14:48:55;;;;;;;50.05;23.52;;;;;;;;;;5116999;28;20244;-53
2021/12/23 14:51:22;;;;;;;59.05;25.70;;;;;;;;;;5117084;28;20378;-54
2021/12/23 14:54:04;;;;;;;64.45;27.20;;;;;;;;;;5117556;28;20529;-55
2021/12/23 14:56:30;;;;;;;76.35;30.65;;;;;;;;;;5117525;28;20529;-55
2021/12/23 14:59:03;;;;;;;72.28;32.90;;;;;;;;;;5117002;28;20211;-54
2021/12/23 15:01:29;;;;;;;75.55;30.75;;;;;;;;;;5121367;27;20210;-54
2021/12/23 15:04:03;;;;;;;68.57;31.88;;;;;;;;;;5135863;27;20206;-55
2021/12/23 15:06:29;;;;;;;61.60;28.80;;;;;;;;;;5141786;27;20214;-54
2021/12/23 15:08:56;;;;;;;52.00;27.70;;;;;;;;;;5143405;27;20366;-54
2021/12/23 15:11:27;;;;;;;50.72;25.33;;;;;;;;;;5143743;27;20195;-53
2021/12/23 15:13:53;;;;;;;44.17;22.83;;;;;;;;;;5130561;27;20183;-53
2021/12/23 15:16:23;;;;;;;37.00;22.17;;;;;;;;;;5121059;28;20206;-55